Time;durP1;ratioP1;P1;durP2;ratioP2;P2;SDS_P1;SDS_P2;PMS_P1;PMS_P2;Temp;Humidity;BMP_temperature;BMP_pressure;BME280_temperature;BME280_humidity;BME280_pressure;Samples;Min_cycle;Max_cycle;Signal;HPM_P1;HPM_P2
2023/07/19 00:01:04;;;;;;;5.13;2.17;;;17.60;99.90;;;;;;6275964;22;20561;-88
2023/07/19 00:03:31;;;;;;;3.73;2.13;;;17.40;99.90;;;;;;6251143;22;20442;-88
2023/07/19 00:06:02;;;;;;;4.97;2.30;;;17.40;99.90;;;;;;6249880;23;20174;-88
2023/07/19 00:08:31;;;;;;;4.23;2.10;;;17.40;99.90;;;;;;6275069;22;20158;-87
2023/07/19 00:10:58;;;;;;;7.87;1.90;;;17.40;99.90;;;;;;6250361;23;20201;-89
2023/07/19 00:13:25;;;;;;;6.00;2.13;;;17.40;99.90;;;;;;6250274;23;20166;-89
2023/07/19 00:15:52;;;;;;;5.43;2.03;;;17.30;99.90;;;;;;6249936;23;20174;-89
2023/07/19 00:18:20;;;;;;;99.33;49.87;;;17.30;99.90;;;;;;6249761;23;20618;-89
2023/07/19 00:20:47;;;;;;;10.40;6.60;;;17.30;99.90;;;;;;6250049;23;20229;-89
2023/07/19 00:23:14;;;;;;;8.23;3.50;;;17.30;99.90;;;;;;6224854;23;20190;-89
2023/07/19 00:25:41;;;;;;;5.33;2.00;;;17.30;99.90;;;;;;6249730;23;20208;-88
2023/07/19 00:28:08;;;;;;;6.80;2.50;;;17.20;99.90;;;;;;6274939;22;20427;-89
2023/07/19 00:30:35;;;;;;;6.20;2.50;;;17.20;99.90;;;;;;6249887;23;20170;-89
2023/07/19 00:33:02;;;;;;;4.67;2.20;;;17.10;99.90;;;;;;6225458;23;20277;-89
2023/07/19 00:35:30;;;;;;;6.97;2.40;;;17.10;99.90;;;;;;6250168;23;20212;-89
2023/07/19 00:37:57;;;;;;;4.37;2.20;;;17.10;99.90;;;;;;6249668;23;20280;-88
2023/07/19 00:40:24;;;;;;;4.17;2.27;;;17.20;99.90;;;;;;6251634;23;20269;-87
2023/07/19 00:42:56;;;;;;;3.47;2.10;;;17.20;99.90;;;;;;6249613;23;20189;-88
2023/07/19 00:45:25;;;;;;;3.77;2.07;;;17.20;99.90;;;;;;6250079;23;20166;-87
2023/07/19 00:47:54;;;;;;;6.60;2.23;;;17.10;99.90;;;;;;6250925;22;20182;-88
2023/07/19 00:50:23;;;;;;;8.23;2.33;;;17.00;99.90;;;;;;6274706;22;20169;-87
2023/07/19 00:52:51;;;;;;;5.17;2.20;;;17.10;99.90;;;;;;6249528;23;20243;-88
2023/07/19 00:55:19;;;;;;;4.43;2.03;;;17.00;99.90;;;;;;6249344;23;20198;-88
2023/07/19 00:57:46;;;;;;;5.67;2.20;;;16.90;99.90;;;;;;6249982;23;20201;-88
2023/07/19 01:00:13;;;;;;;3.23;1.90;;;16.90;99.90;;;;;;6249966;23;20185;-88
2023/07/19 01:02:41;;;;;;;5.67;2.20;;;16.80;99.90;;;;;;6224776;23;20194;-88
2023/07/19 01:05:08;;;;;;;3.33;2.03;;;16.80;99.90;;;;;;6250204;23;20212;-87
2023/07/19 01:07:37;;;;;;;4.43;2.00;;;16.80;99.90;;;;;;6223722;23;20196;-87
2023/07/19 01:10:05;;;;;;;4.13;2.30;;;16.70;99.90;;;;;;6249901;23;20458;-88
2023/07/19 01:12:32;;;;;;;4.37;1.93;;;16.80;99.90;;;;;;6250816;22;20187;-90
2023/07/19 01:15:00;;;;;;;3.80;2.10;;;16.80;99.90;;;;;;6251665;22;20170;-89
2023/07/19 01:17:27;;;;;;;5.07;2.10;;;16.80;99.90;;;;;;6249624;23;20221;-88
2023/07/19 01:19:55;;;;;;;4.57;2.30;;;16.80;99.90;;;;;;6251581;22;20172;-88
2023/07/19 01:22:22;;;;;;;4.93;2.20;;;16.80;99.90;;;;;;6275806;22;20182;-88
2023/07/19 01:24:49;;;;;;;9.03;2.53;;;16.80;99.90;;;;;;6251550;22;20159;-89
2023/07/19 01:27:16;;;;;;;4.60;2.47;;;16.70;99.90;;;;;;6250392;22;20667;-89
2023/07/19 01:29:49;;;;;;;3.53;2.20;;;16.70;99.90;;;;;;6274962;22;20193;-89
2023/07/19 01:32:17;;;;;;;5.67;2.37;;;16.60;99.90;;;;;;6274949;22;20224;-89
2023/07/19 01:34:44;;;;;;;4.43;2.10;;;16.60;99.90;;;;;;6250845;23;20166;-90
2023/07/19 01:37:11;;;;;;;4.67;2.00;;;16.50;99.90;;;;;;6249733;23;20186;-90
2023/07/19 01:39:38;;;;;;;4.07;2.20;;;16.40;99.90;;;;;;6274959;22;20173;-90
2023/07/19 01:42:06;;;;;;;4.90;2.17;;;16.50;99.90;;;;;;6250626;22;20206;-90
2023/07/19 01:44:33;;;;;;;4.13;2.10;;;16.40;99.90;;;;;;6249712;23;20182;-90
2023/07/19 01:47:00;;;;;;;5.73;2.50;;;16.40;99.90;;;;;;6250098;23;20212;-89
2023/07/19 01:49:27;;;;;;;5.63;2.53;;;16.40;99.90;;;;;;6250371;22;20208;-90
2023/07/19 01:51:54;;;;;;;5.23;2.40;;;16.50;99.90;;;;;;6274794;22;20455;-88
2023/07/19 01:54:21;;;;;;;4.37;2.40;;;16.40;99.90;;;;;;6249410;23;20577;-90
2023/07/19 01:56:48;;;;;;;5.27;2.47;;;16.40;99.90;;;;;;6249493;23;20193;-89
2023/07/19 01:59:16;;;;;;;4.60;2.47;;;16.40;99.90;;;;;;6224454;23;20174;-89
2023/07/19 02:01:43;;;;;;;5.57;2.50;;;16.40;99.90;;;;;;6249095;23;20200;-89
2023/07/19 02:04:10;;;;;;;7.60;2.50;;;16.40;99.90;;;;;;6250829;22;20493;-89
2023/07/19 02:06:38;;;;;;;4.53;2.40;;;16.30;99.90;;;;;;6249081;23;20202;-89
2023/07/19 02:09:04;;;;;;;6.37;2.60;;;16.30;99.90;;;;;;6275003;22;20552;-88
2023/07/19 02:11:32;;;;;;;4.00;2.30;;;16.20;99.90;;;;;;6274591;22;20569;-89
2023/07/19 02:13:59;;;;;;;3.60;2.23;;;16.10;99.90;;;;;;6253185;23;20162;-89
2023/07/19 02:16:26;;;;;;;4.80;2.33;;;16.00;99.90;;;;;;6225591;23;20194;-89
2023/07/19 02:18:53;;;;;;;5.63;2.67;;;15.90;99.90;;;;;;6251242;23;20174;-88
2023/07/19 02:21:20;;;;;;;4.50;2.47;;;15.90;99.90;;;;;;6225914;23;20190;-88
2023/07/19 02:23:48;;;;;;;5.77;2.43;;;15.80;99.90;;;;;;6276831;22;20216;-87
2023/07/19 02:26:15;;;;;;;6.07;2.47;;;15.80;99.90;;;;;;6250532;23;20186;-87
2023/07/19 02:28:42;;;;;;;5.93;2.53;;;15.80;99.90;;;;;;6276951;22;20174;-88
2023/07/19 02:31:09;;;;;;;4.13;2.37;;;15.70;99.90;;;;;;6252650;22;20233;-88
2023/07/19 02:33:36;;;;;;;6.80;2.43;;;15.70;99.90;;;;;;6252086;22;20163;-88
2023/07/19 02:36:04;;;;;;;4.67;2.50;;;15.70;99.90;;;;;;6252546;22;20437;-88
2023/07/19 02:38:31;;;;;;;4.70;2.60;;;15.70;99.90;;;;;;6251162;23;20193;-87
2023/07/19 02:40:59;;;;;;;5.77;2.90;;;15.70;99.90;;;;;;6253425;22;20476;-87
2023/07/19 02:43:27;;;;;;;7.90;2.53;;;15.70;99.90;;;;;;6251846;22;20233;-88
2023/07/19 02:45:55;;;;;;;6.30;2.73;;;15.60;99.90;;;;;;6250660;23;20162;-87
2023/07/19 02:48:22;;;;;;;5.90;3.00;;;15.60;99.90;;;;;;6251039;23;20208;-87
2023/07/19 02:50:49;;;;;;;5.67;2.80;;;15.60;99.90;;;;;;6276930;22;20177;-88
2023/07/19 02:53:17;;;;;;;5.27;2.70;;;15.60;99.90;;;;;;6278587;22;20190;-88
2023/07/19 02:55:44;;;;;;;6.27;2.90;;;15.50;99.90;;;;;;6256122;22;20168;-88
2023/07/19 02:58:12;;;;;;;5.77;2.93;;;15.60;99.90;;;;;;6281748;22;20580;-88
2023/07/19 03:00:41;;;;;;;6.13;3.17;;;15.50;99.90;;;;;;6281486;22;20181;-86
2023/07/19 03:03:11;;;;;;;6.83;3.17;;;15.50;99.90;;;;;;6255757;22;20564;-88
2023/07/19 03:05:42;;;;;;;7.37;2.70;;;15.50;99.90;;;;;;6282459;22;20150;-86
2023/07/19 03:08:09;;;;;;;7.73;2.90;;;15.60;99.90;;;;;;6282498;22;20568;-87
2023/07/19 03:10:37;;;;;;;6.00;3.13;;;15.40;99.90;;;;;;6255202;22;20271;-87
2023/07/19 03:13:04;;;;;;;5.67;3.20;;;15.40;99.90;;;;;;6250097;23;20191;-87
2023/07/19 03:15:33;;;;;;;6.20;3.07;;;15.30;99.90;;;;;;6273950;22;20173;-87
2023/07/19 03:18:04;;;;;;;7.87;3.17;;;15.40;99.90;;;;;;6282017;22;20173;-87
2023/07/19 03:20:31;;;;;;;6.40;3.27;;;15.30;99.90;;;;;;6280936;22;20566;-87
2023/07/19 03:23:00;;;;;;;6.23;3.00;;;15.30;99.90;;;;;;6255158;22;20186;-86
2023/07/19 03:25:29;;;;;;;5.57;3.30;;;15.30;99.90;;;;;;6282055;22;20559;-87
2023/07/19 03:27:56;;;;;;;5.97;3.30;;;15.30;99.90;;;;;;6281986;22;20181;-85
2023/07/19 03:30:24;;;;;;;6.43;3.10;;;15.30;99.90;;;;;;6281394;22;20169;-87
2023/07/19 03:32:51;;;;;;;7.50;3.20;;;15.30;99.90;;;;;;6255966;22;20277;-88
2023/07/19 03:35:19;;;;;;;7.53;3.47;;;15.40;99.90;;;;;;6255793;22;20165;-88
2023/07/19 03:37:48;;;;;;;7.33;3.30;;;15.50;99.90;;;;;;6282719;22;20444;-89
2023/07/19 03:40:15;;;;;;;6.93;3.10;;;15.40;99.90;;;;;;6230591;22;20154;-88
2023/07/19 03:42:42;;;;;;;5.37;3.67;;;15.40;99.90;;;;;;6255614;22;20191;-87
2023/07/19 03:45:09;;;;;;;8.07;3.30;;;15.50;99.90;;;;;;6255491;22;20166;-87
2023/07/19 03:47:37;;;;;;;4.83;3.10;;;15.50;99.90;;;;;;6254872;22;20265;-88
2023/07/19 03:50:04;;;;;;;5.93;3.13;;;15.50;99.90;;;;;;6282599;22;20162;-89
2023/07/19 03:52:32;;;;;;;4.90;2.90;;;15.60;99.90;;;;;;6281658;22;20196;-88
2023/07/19 03:54:59;;;;;;;6.30;3.20;;;15.70;99.90;;;;;;6250483;23;20202;-88
2023/07/19 03:57:26;;;;;;;6.03;3.20;;;15.80;99.90;;;;;;6251694;22;20240;-88
2023/07/19 03:59:54;;;;;;;7.23;3.27;;;15.80;99.90;;;;;;6250223;23;20169;-88
2023/07/19 04:02:22;;;;;;;4.77;3.20;;;16.00;99.90;;;;;;6250083;23;20437;-87
2023/07/19 04:04:49;;;;;;;5.80;2.93;;;16.10;99.90;;;;;;6250088;23;20645;-88
2023/07/19 04:07:17;;;;;;;5.40;3.20;;;16.10;99.90;;;;;;6274844;22;20209;-87
2023/07/19 04:09:44;;;;;;;5.13;3.17;;;16.10;99.90;;;;;;6252284;22;20434;-88
2023/07/19 04:12:11;;;;;;;4.37;2.97;;;16.20;99.90;;;;;;6225056;23;20190;-87
2023/07/19 04:14:39;;;;;;;8.13;3.33;;;16.30;99.90;;;;;;6275751;22;20197;-87
2023/07/19 04:17:07;;;;;;;8.20;3.30;;;16.40;99.90;;;;;;6251116;22;20236;-89
2023/07/19 04:19:34;;;;;;;7.00;3.53;;;16.50;99.90;;;;;;6250452;23;20213;-89
2023/07/19 04:22:03;;;;;;;7.37;3.20;;;16.50;99.90;;;;;;6251031;23;20201;-89
2023/07/19 04:24:30;;;;;;;7.63;3.43;;;16.60;99.90;;;;;;6250065;23;20173;-89
2023/07/19 04:26:57;;;;;;;5.70;3.03;;;16.60;99.90;;;;;;6249432;23;20206;-89
2023/07/19 04:29:24;;;;;;;7.00;3.30;;;16.80;99.90;;;;;;6249951;23;20424;-90
2023/07/19 04:31:51;;;;;;;4.50;3.13;;;16.80;99.90;;;;;;6275302;22;20186;-89
2023/07/19 04:34:20;;;;;;;5.40;3.17;;;16.90;99.90;;;;;;6249322;23;20170;-89
2023/07/19 04:36:48;;;;;;;6.63;3.57;;;16.90;99.90;;;;;;6275026;22;20200;-89
2023/07/19 04:39:15;;;;;;;6.77;3.60;;;17.00;99.90;;;;;;6251096;22;20254;-89
2023/07/19 04:41:42;;;;;;;6.23;3.53;;;17.10;99.90;;;;;;6249326;23;20565;-89
2023/07/19 04:44:11;;;;;;;10.40;4.00;;;17.20;99.90;;;;;;6275346;22;20545;-88
2023/07/19 04:46:38;;;;;;;5.93;3.40;;;17.30;99.90;;;;;;6249189;23;20216;-90
2023/07/19 04:49:06;;;;;;;9.93;4.37;;;17.40;99.90;;;;;;6250995;22;20168;-90
2023/07/19 04:51:34;;;;;;;7.50;3.40;;;17.40;99.90;;;;;;6250170;23;20544;-90
2023/07/19 04:54:01;;;;;;;8.00;3.23;;;17.50;99.90;;;;;;6250090;23;20424;-88
2023/07/19 04:56:28;;;;;;;6.27;3.30;;;17.50;99.90;;;;;;6275671;22;20186;-88
2023/07/19 04:58:55;;;;;;;4.97;3.00;;;17.60;99.90;;;;;;6274552;22;20158;-88
2023/07/19 05:01:25;;;;;;;5.17;3.20;;;17.70;99.90;;;;;;6273211;22;20190;-86
2023/07/19 05:03:52;;;;;;;6.37;3.40;;;17.70;99.90;;;;;;6237669;23;20190;-86
2023/07/19 05:06:19;;;;;;;6.30;3.27;;;17.70;99.90;;;;;;6248931;23;20545;-87
2023/07/19 05:08:47;;;;;;;6.03;3.03;;;17.80;99.90;;;;;;6249685;23;20598;-87
2023/07/19 05:11:13;;;;;;;5.50;3.03;;;17.90;99.90;;;;;;6250123;22;20194;-86
2023/07/19 05:13:42;;;;;;;7.30;3.03;;;17.90;99.90;;;;;;6274539;22;20166;-87
2023/07/19 05:16:09;;;;;;;6.93;3.30;;;18.00;99.90;;;;;;6274200;22;20415;-87
2023/07/19 05:18:37;;;;;;;7.20;3.37;;;18.10;99.90;;;;;;6274732;22;20170;-86
2023/07/19 05:21:04;;;;;;;5.50;2.90;;;18.20;99.90;;;;;;6274515;22;20216;-88
2023/07/19 05:23:31;;;;;;;6.47;2.60;;;18.30;99.90;;;;;;6275089;22;20172;-88
2023/07/19 05:25:58;;;;;;;8.73;3.20;;;18.40;99.90;;;;;;6274888;22;20162;-88
2023/07/19 05:28:25;;;;;;;6.13;2.77;;;18.50;99.90;;;;;;6249739;22;20162;-87
2023/07/19 05:30:53;;;;;;;5.80;2.80;;;18.60;99.90;;;;;;6249270;23;20162;-87
2023/07/19 05:33:20;;;;;;;5.90;2.90;;;18.60;99.90;;;;;;6274903;22;20166;-86
2023/07/19 05:35:48;;;;;;;5.30;2.47;;;18.70;99.90;;;;;;6274397;22;20201;-88
2023/07/19 05:38:15;;;;;;;4.70;2.70;;;18.80;99.90;;;;;;6250791;22;20183;-89
2023/07/19 05:40:42;;;;;;;5.77;2.87;;;19.00;99.90;;;;;;6274561;22;20170;-88
2023/07/19 05:43:09;;;;;;;5.07;2.57;;;19.10;99.90;;;;;;6249139;23;20196;-88
2023/07/19 05:45:37;;;;;;;6.23;2.73;;;19.20;99.90;;;;;;6250404;22;20228;-87
2023/07/19 05:48:04;;;;;;;7.27;2.60;;;19.30;99.90;;;;;;6275922;22;20603;-86
2023/07/19 05:50:31;;;;;;;6.97;2.40;;;19.30;99.90;;;;;;6251254;23;20506;-86
2023/07/19 05:52:59;;;;;;;5.77;2.77;;;19.40;99.90;;;;;;6276957;22;20195;-86
2023/07/19 05:55:26;;;;;;;5.40;2.80;;;19.50;99.90;;;;;;6276175;22;20194;-86
2023/07/19 05:57:53;;;;;;;7.70;2.90;;;19.60;99.90;;;;;;6226128;23;20186;-85
2023/07/19 06:00:28;;;;;;;5.40;2.70;;;19.70;99.90;;;;;;6251415;23;20173;-88
2023/07/19 06:02:56;;;;;;;6.20;2.53;;;19.80;99.90;;;;;;6251158;23;20228;-88
2023/07/19 06:05:24;;;;;;;7.87;3.07;;;19.90;99.90;;;;;;6252606;22;20228;-88
2023/07/19 06:07:52;;;;;;;7.80;2.90;;;20.10;99.90;;;;;;6251024;23;20186;-87
2023/07/19 06:10:19;;;;;;;4.37;2.53;;;20.10;99.90;;;;;;6251260;23;20510;-87
2023/07/19 06:12:47;;;;;;;4.07;2.30;;;20.20;99.90;;;;;;6250962;23;20202;-87
2023/07/19 06:15:14;;;;;;;6.00;2.40;;;20.30;99.90;;;;;;6251129;23;20181;-87
2023/07/19 06:17:42;;;;;;;4.27;2.43;;;20.40;99.90;;;;;;6252312;23;20186;-87
2023/07/19 06:20:10;;;;;;;4.87;2.40;;;20.50;99.90;;;;;;6226021;23;20257;-87
2023/07/19 06:22:38;;;;;;;4.27;2.50;;;20.60;99.90;;;;;;6276707;22;20258;-87
2023/07/19 06:25:06;;;;;;;3.30;2.30;;;20.70;99.90;;;;;;6251364;23;20166;-85
2023/07/19 06:27:33;;;;;;;5.37;2.20;;;20.80;99.90;;;;;;6250390;23;20429;-88
2023/07/19 06:30:00;;;;;;;3.73;2.20;;;20.90;99.90;;;;;;6251046;23;20254;-86
2023/07/19 06:32:28;;;;;;;3.60;2.30;;;21.00;99.90;;;;;;6251496;23;20190;-87
2023/07/19 06:34:55;;;;;;;3.90;1.90;;;21.10;99.90;;;;;;6276902;22;20217;-86
2023/07/19 06:37:22;;;;;;;3.20;2.00;;;21.20;99.90;;;;;;6252263;23;20545;-86
2023/07/19 06:39:50;;;;;;;2.97;1.50;;;21.30;99.90;;;;;;6251409;23;20212;-85
2023/07/19 06:42:17;;;;;;;5.07;1.97;;;21.20;99.90;;;;;;6276256;22;20191;-86
2023/07/19 06:44:44;;;;;;;4.13;2.13;;;21.40;99.90;;;;;;6276168;22;20198;-87
2023/07/19 06:47:11;;;;;;;3.37;2.00;;;21.30;99.90;;;;;;6250663;23;20436;-87
2023/07/19 06:49:38;;;;;;;3.43;2.00;;;21.50;99.90;;;;;;6251673;22;20185;-87
2023/07/19 06:52:06;;;;;;;3.37;2.00;;;21.60;99.90;;;;;;6252110;23;20182;-87
2023/07/19 06:54:34;;;;;;;3.07;1.70;;;21.70;99.90;;;;;;6250720;23;20205;-86
2023/07/19 06:57:01;;;;;;;5.17;1.90;;;21.80;99.90;;;;;;6252174;23;20197;-86
2023/07/19 06:59:28;;;;;;;5.53;1.40;;;21.80;99.90;;;;;;6250978;23;20170;-87
2023/07/19 07:01:55;;;;;;;3.40;1.20;;;21.80;99.90;;;;;;6275774;22;20206;-86
2023/07/19 07:04:23;;;;;;;3.53;1.43;;;21.90;99.90;;;;;;6250911;23;20217;-86
2023/07/19 07:06:51;;;;;;;4.13;1.40;;;22.00;99.90;;;;;;6275323;22;20425;-87
2023/07/19 07:09:18;;;;;;;5.37;1.60;;;22.20;99.90;;;;;;6275316;22;20173;-87
2023/07/19 07:11:45;;;;;;;2.73;1.50;;;22.30;99.90;;;;;;6250634;23;20524;-86
2023/07/19 07:14:12;;;;;;;2.47;1.35;;;22.40;99.90;;;;;;6250862;23;20206;-88
2023/07/19 07:16:39;;;;;;;3.05;1.33;;;22.50;99.90;;;;;;6250946;23;20248;-87
2023/07/19 07:19:07;;;;;;;1.52;1.27;;;22.70;99.90;;;;;;6248430;23;20173;-87
2023/07/19 07:21:34;;;;;;;3.97;1.30;;;22.80;99.90;;;;;;6248503;23;20292;-87
2023/07/19 07:24:01;;;;;;;4.18;1.60;;;22.80;99.90;;;;;;6275063;22;20306;-85
2023/07/19 07:26:28;;;;;;;2.30;1.40;;;22.90;99.90;;;;;;6275257;22;20558;-88
2023/07/19 07:28:55;;;;;;;3.38;1.45;;;22.90;99.90;;;;;;6274928;22;20213;-87
2023/07/19 07:31:22;;;;;;;2.60;1.15;;;22.90;98.50;;;;;;6276289;22;20421;-86
2023/07/19 07:33:49;;;;;;;2.28;1.52;;;22.90;99.30;;;;;;6249881;23;20170;-88
2023/07/19 07:36:16;;;;;;;2.60;1.48;;;22.90;98.50;;;;;;6250302;23;20621;-88
2023/07/19 07:38:43;;;;;;;2.47;1.40;;;22.90;98.80;;;;;;6250746;23;20172;-88
2023/07/19 07:41:12;;;;;;;3.15;1.45;;;23.10;98.90;;;;;;6250514;23;20434;-88
2023/07/19 07:43:40;;;;;;;4.00;1.45;;;23.20;99.10;;;;;;6275212;22;20444;-87
2023/07/19 07:46:10;;;;;;;2.70;1.25;;;23.40;97.00;;;;;;6249856;23;20166;-90
2023/07/19 07:48:37;;;;;;;2.75;1.13;;;23.50;96.20;;;;;;6250638;23;20244;-87
2023/07/19 07:51:04;;;;;;;4.22;1.20;;;23.70;94.90;;;;;;6250392;23;20216;-89
2023/07/19 07:53:45;;;;;;;3.85;1.25;;;23.80;93.40;;;;;;6255248;22;20189;-90
2023/07/19 07:56:19;;;;;;;2.03;1.20;;;23.80;92.60;;;;;;6232277;22;20189;-87
2023/07/19 07:58:46;;;;;;;2.67;1.23;;;23.70;92.00;;;;;;6283341;22;20166;-88
2023/07/19 08:01:13;;;;;;;1.98;1.27;;;23.80;92.00;;;;;;6256067;22;20240;-90
2023/07/19 08:03:40;;;;;;;2.90;1.25;;;24.00;92.30;;;;;;6256043;22;20303;-89
2023/07/19 08:06:24;;;;;;;2.30;1.20;;;24.20;91.40;;;;;;6282659;22;20162;-88
2023/07/19 08:08:52;;;;;;;4.45;1.52;;;24.10;91.30;;;;;;6226075;22;20582;-87
2023/07/19 08:11:26;;;;;;;2.67;1.20;;;24.20;91.00;;;;;;6255581;22;20248;-86
2023/07/19 08:14:09;;;;;;;2.00;1.40;;;24.20;92.00;;;;;;6248445;23;20158;-86
2023/07/19 08:16:45;;;;;;;3.08;1.40;;;24.20;91.30;;;;;;6252852;22;20236;-88
2023/07/19 08:19:13;;;;;;;3.00;1.35;;;24.10;90.90;;;;;;6280990;22;20170;-86
2023/07/19 08:21:40;;;;;;;3.10;1.40;;;24.10;90.50;;;;;;6281571;22;20256;-87
2023/07/19 08:24:12;;;;;;;7.70;2.05;;;24.00;90.50;;;;;;6255405;22;20193;-87
2023/07/19 08:26:43;;;;;;;4.20;1.73;;;24.20;91.00;;;;;;6255142;22;20591;-87
2023/07/19 08:29:11;;;;;;;3.65;1.35;;;25.00;90.10;;;;;;6280919;22;20165;-86
2023/07/19 08:31:38;;;;;;;3.38;1.38;;;26.00;86.80;;;;;;6255288;22;20185;-86
2023/07/19 08:34:05;;;;;;;4.53;1.60;;;26.70;83.30;;;;;;6255220;22;20252;-87
2023/07/19 08:36:35;;;;;;;5.68;1.50;;;27.40;83.60;;;;;;6280346;22;20182;-85
2023/07/19 08:39:03;;;;;;;3.20;1.40;;;28.10;77.50;;;;;;6255275;22;20175;-86
2023/07/19 08:41:32;;;;;;;7.95;2.30;;;28.30;72.70;;;;;;6254231;22;20189;-85
2023/07/19 08:44:00;;;;;;;4.57;1.45;;;28.00;72.90;;;;;;6254704;22;20162;-86
2023/07/19 08:46:27;;;;;;;2.53;1.25;;;28.10;70.70;;;;;;6255093;22;20191;-85
2023/07/19 08:48:55;;;;;;;3.38;1.45;;;27.60;70.50;;;;;;6254014;22;20161;-86
2023/07/19 08:54:40;;;;;;;1.65;1.10;;;28.50;70.60;;;;;;6161074;23;20199;-83
2023/07/19 08:57:07;;;;;;;2.42;1.42;;;29.30;68.30;;;;;;6187470;23;20220;-85
2023/07/19 08:59:34;;;;;;;3.05;1.33;;;29.50;68.20;;;;;;6163259;23;20164;-85
2023/07/19 09:02:33;;;;;;;2.70;1.30;;;29.80;66.40;;;;;;6187469;23;20244;-88
2023/07/19 09:05:08;;;;;;;2.65;1.40;;;29.50;64.10;;;;;;6187757;23;20183;-84
2023/07/19 09:07:36;;;;;;;2.17;1.30;;;29.20;63.40;;;;;;6188045;23;20184;-86
2023/07/19 09:10:05;;;;;;;3.75;1.35;;;28.80;64.50;;;;;;6187831;23;20191;-82
2023/07/19 09:12:39;;;;;;;2.97;1.50;;;28.40;63.10;;;;;;6187361;23;20205;-84
2023/07/19 09:15:12;;;;;;;3.50;1.38;;;28.60;64.90;;;;;;6189003;23;20234;-84
2023/07/19 09:17:47;;;;;;;2.78;1.42;;;28.10;63.60;;;;;;6162678;23;20192;-87
2023/07/19 09:20:17;;;;;;;4.20;1.30;;;27.90;65.40;;;;;;6163048;23;20159;-85
2023/07/19 09:22:44;;;;;;;1.55;1.30;;;27.80;66.00;;;;;;6191649;23;20195;-91
2023/07/19 09:28:06;;;;;;;3.05;1.55;;;27.20;67.80;;;;;;6167607;23;20547;-86
2023/07/19 09:53:38;;;;;;;3.58;1.40;;;29.70;63.00;;;;;;6256370;22;20187;-91
2023/07/19 10:04:54;;;;;;;;;;;;;;;;;;;;;
2023/07/19 10:11:00;;;;;;;5.47;1.50;;;29.90;58.30;;;;;;6217200;22;20214;-88
2023/07/19 10:29:43;;;;;;;2.65;1.50;;;32.80;54.00;;;;;;6238725;23;20581;-89
2023/07/19 10:39:25;;;;;;;1.90;1.23;;;31.90;55.30;;;;;;6249931;23;20232;-91
2023/07/19 10:48:27;;;;;;;2.42;1.50;;;31.00;56.20;;;;;;6214184;22;20225;-85
2023/07/19 11:10:05;;;;;;;2.30;1.33;;;30.20;55.10;;;;;;6223746;22;20237;-83
2023/07/19 11:12:36;;;;;;;1.80;1.30;;;29.80;56.20;;;;;;6281235;22;20419;-84
2023/07/19 11:15:10;;;;;;;2.78;1.50;;;29.70;56.70;;;;;;6255618;22;20146;-86
2023/07/19 11:17:39;;;;;;;2.45;1.40;;;30.50;57.80;;;;;;6279916;22;20173;-82
2023/07/19 11:20:08;;;;;;;2.35;1.58;;;30.60;56.20;;;;;;6255383;22;20348;-77
2023/07/19 11:22:43;;;;;;;2.72;1.52;;;31.10;55.10;;;;;;6250463;23;20482;-86
2023/07/19 11:35:46;;;;;;;2.17;1.50;;;30.40;53.60;;;;;;6213187;23;20182;-90
2023/07/19 11:40:04;;;;;;;1.95;1.63;;;29.60;55.30;;;;;;6098344;23;20264;-90
2023/07/19 11:42:48;;;;;;;3.58;1.60;;;29.60;56.60;;;;;;6048596;23;20234;-85
2023/07/19 11:45:20;;;;;;;5.22;1.48;;;29.60;56.00;;;;;;6041374;23;20172;-87
2023/07/19 11:47:48;;;;;;;2.85;1.50;;;29.00;56.30;;;;;;6042482;23;20295;-85
2023/07/19 11:50:16;;;;;;;3.08;1.40;;;28.90;56.10;;;;;;6042382;23;20168;-85
2023/07/19 11:52:51;;;;;;;1.98;1.50;;;28.70;56.10;;;;;;6042248;23;20191;-86
2023/07/19 11:55:19;;;;;;;2.47;1.75;;;28.20;57.50;;;;;;6042297;23;20171;-84
2023/07/19 11:57:49;;;;;;;2.05;1.40;;;28.20;57.30;;;;;;6042007;23;20190;-84
2023/07/19 12:00:17;;;;;;;2.38;1.60;;;28.40;57.30;;;;;;6041871;23;20177;-85
2023/07/19 12:02:46;;;;;;;2.58;1.60;;;28.40;58.50;;;;;;5928879;24;20202;-86
2023/07/19 12:05:28;;;;;;;3.13;1.55;;;27.70;57.70;;;;;;5929203;24;20205;-89
2023/07/19 12:08:10;;;;;;;3.05;1.60;;;27.80;57.80;;;;;;5929971;24;20185;-88
2023/07/19 12:10:52;;;;;;;3.25;1.85;;;27.90;59.00;;;;;;5934661;24;20169;-88
2023/07/19 12:13:19;;;;;;;2.85;1.77;;;28.10;60.40;;;;;;5959342;23;20252;-85
2023/07/19 12:15:46;;;;;;;3.60;1.60;;;28.00;58.40;;;;;;6101069;23;20614;-89
2023/07/19 12:18:14;;;;;;;3.65;1.70;;;27.70;59.20;;;;;;6158168;23;20239;-85
2023/07/19 12:20:41;;;;;;;2.60;1.73;;;27.80;58.80;;;;;;6183916;22;20411;-85
2023/07/19 12:23:08;;;;;;;3.22;1.60;;;28.30;58.60;;;;;;6229160;22;20193;-88
2023/07/19 12:25:35;;;;;;;3.08;1.80;;;29.20;57.90;;;;;;6254959;22;20157;-86
2023/07/19 12:28:05;;;;;;;2.45;1.40;;;29.70;56.50;;;;;;6257726;22;20178;-86
2023/07/19 12:30:32;;;;;;;2.38;1.58;;;30.40;56.30;;;;;;6254204;22;20190;-86
2023/07/19 12:33:00;;;;;;;2.92;1.70;;;31.10;56.80;;;;;;6279760;22;20232;-86
2023/07/19 12:35:28;;;;;;;2.85;1.35;;;31.60;54.10;;;;;;6253350;22;20200;-83
2023/07/19 12:37:55;;;;;;;2.65;1.70;;;32.40;53.20;;;;;;6157138;23;20291;-85
2023/07/19 12:40:23;;;;;;;3.25;1.55;;;32.90;52.40;;;;;;6156879;23;20172;-86
2023/07/19 12:42:50;;;;;;;2.90;1.55;;;33.10;52.40;;;;;;6157799;23;20192;-89
2023/07/19 12:45:20;;;;;;;3.30;1.60;;;33.40;51.30;;;;;;6157102;23;20160;-86
2023/07/19 12:47:49;;;;;;;1.40;1.25;;;33.20;50.50;;;;;;6157143;23;20658;-87
2023/07/19 12:50:16;;;;;;;6.40;1.60;;;32.90;51.50;;;;;;6133350;23;20203;-87
2023/07/19 12:52:46;;;;;;;2.67;1.50;;;32.50;52.00;;;;;;6158871;23;20188;-86
2023/07/19 12:55:18;;;;;;;2.20;1.60;;;32.30;52.20;;;;;;6157716;23;20156;-87
2023/07/19 12:57:46;;;;;;;2.53;1.50;;;32.60;52.70;;;;;;6157116;23;20506;-86
2023/07/19 13:00:13;;;;;;;1.85;1.35;;;32.90;51.50;;;;;;6157979;23;20532;-87
2023/07/19 13:02:44;;;;;;;2.22;1.30;;;33.20;51.00;;;;;;6200930;22;20193;-83
2023/07/19 13:05:12;;;;;;;8.23;1.88;;;33.40;51.80;;;;;;6255594;22;20189;-83
2023/07/19 13:07:39;;;;;;;2.88;1.55;;;33.70;51.90;;;;;;6254219;22;20182;-86
2023/07/19 13:10:13;;;;;;;2.10;1.38;;;33.10;49.90;;;;;;6254250;22;20161;-85
2023/07/19 13:12:41;;;;;;;4.10;1.67;;;33.00;51.00;;;;;;6228532;22;20586;-81
2023/07/19 13:15:10;;;;;;;2.95;1.50;;;33.50;51.10;;;;;;6253778;22;20170;-85
2023/07/19 13:17:38;;;;;;;2.75;1.52;;;33.70;50.50;;;;;;6253752;22;20203;-86
2023/07/19 13:20:10;;;;;;;3.17;1.67;;;33.90;50.30;;;;;;6281362;22;20168;-86
2023/07/19 13:22:38;;;;;;;1.95;1.33;;;34.50;49.40;;;;;;6253661;22;20276;-84
2023/07/19 13:25:05;;;;;;;2.45;1.73;;;34.30;47.80;;;;;;6281080;22;20184;-84
2023/07/19 13:27:34;;;;;;;4.78;1.40;;;34.50;48.90;;;;;;6279571;22;20548;-83
2023/07/19 13:30:03;;;;;;;2.05;1.50;;;34.90;48.60;;;;;;6253495;22;20197;-85
2023/07/19 13:32:32;;;;;;;3.05;1.30;;;35.10;48.70;;;;;;6253931;22;20189;-84
2023/07/19 13:34:59;;;;;;;5.43;1.60;;;35.40;48.30;;;;;;6280061;22;20164;-83
2023/07/19 13:37:27;;;;;;;3.25;2.00;;;35.90;48.60;;;;;;6279102;22;20643;-82
2023/07/19 13:40:14;;;;;;;2.50;1.60;;;36.20;47.70;;;;;;6280593;22;20515;-88
2023/07/19 13:42:44;;;;;;;4.22;1.50;;;35.90;47.50;;;;;;6280504;22;20207;-87
2023/07/19 13:45:12;;;;;;;3.08;1.60;;;36.00;46.70;;;;;;6253887;22;20448;-85
2023/07/19 13:47:39;;;;;;;2.53;1.60;;;34.30;47.10;;;;;;6253451;22;20193;-84
2023/07/19 13:50:09;;;;;;;3.20;1.60;;;34.50;48.90;;;;;;6279645;22;20508;-85
2023/07/19 13:52:36;;;;;;;3.55;1.40;;;35.10;48.10;;;;;;6278596;22;20212;-85
2023/07/19 13:55:05;;;;;;;4.75;1.67;;;35.80;48.20;;;;;;6253901;22;20173;-85
2023/07/19 13:57:32;;;;;;;3.53;1.63;;;35.90;47.40;;;;;;6253152;22;20190;-85
2023/07/19 13:59:59;;;;;;;5.53;2.08;;;36.60;46.60;;;;;;6279200;22;20231;-84
2023/07/19 14:02:29;;;;;;;2.63;1.40;;;36.00;47.50;;;;;;6279905;22;20178;-82
2023/07/19 14:04:57;;;;;;;2.38;1.65;;;36.60;46.40;;;;;;6252814;22;20600;-84
2023/07/19 14:07:26;;;;;;;2.28;1.50;;;35.60;47.20;;;;;;6229502;22;20208;-84
2023/07/19 14:09:54;;;;;;;3.50;1.58;;;35.60;46.40;;;;;;6281846;22;20495;-85
2023/07/19 14:12:25;;;;;;;3.05;1.40;;;34.50;47.80;;;;;;6255541;22;20647;-83
2023/07/19 14:15:00;;;;;;;2.78;1.67;;;34.90;48.20;;;;;;6256449;22;20165;-86
2023/07/19 14:17:28;;;;;;;2.67;1.73;;;35.20;47.80;;;;;;6281406;22;20212;-85
2023/07/19 14:19:55;;;;;;;2.28;1.48;;;35.60;47.60;;;;;;6281783;22;20169;-83
2023/07/19 14:22:23;;;;;;;2.13;1.33;;;36.10;47.50;;;;;;6281648;22;20193;-85
2023/07/19 14:24:50;;;;;;;3.53;1.63;;;36.20;46.50;;;;;;6255790;22;20193;-83
2023/07/19 14:27:18;;;;;;;2.90;1.50;;;36.20;45.80;;;;;;6254430;22;20388;-82
2023/07/19 14:29:45;;;;;;;2.47;1.65;;;35.60;46.60;;;;;;6281419;22;20174;-83
2023/07/19 14:32:14;;;;;;;1.73;1.48;;;34.70;47.70;;;;;;6256039;22;20212;-82
2023/07/19 14:34:41;;;;;;;3.92;1.50;;;35.10;46.60;;;;;;6281973;22;20409;-82
2023/07/19 14:37:13;;;;;;;2.60;1.60;;;34.80;47.70;;;;;;6254184;22;20626;-83